Time;durP1;ratioP1;P1;durP2;ratioP2;P2;SDS_P1;SDS_P2;PMS_P1;PMS_P2;Temp;Humidity;BMP_temperature;BMP_pressure;BME280_temperature;BME280_humidity;BME280_pressure;Samples;Min_cycle;Max_cycle;Signal;HPM_P1;HPM_P2
2023/08/16 00:00:30;;;;;;;7.88;3.10;;;14.40;99.90;;;;;;6248742;22;20444;-87
2023/08/16 00:02:58;;;;;;;8.88;3.63;;;14.30;99.90;;;;;;6248528;22;20023;-87
2023/08/16 00:05:24;;;;;;;10.38;3.40;;;14.30;99.90;;;;;;6246136;22;20026;-87
2023/08/16 00:07:50;;;;;;;9.80;3.58;;;15.10;99.90;;;;;;6275840;22;20012;-87
2023/08/16 00:10:16;;;;;;;9.75;3.50;;;14.20;99.90;;;;;;6276259;22;20019;-86
2023/08/16 00:12:56;;;;;;;9.65;3.50;;;14.20;99.90;;;;;;6275069;22;20020;-87
2023/08/16 00:15:22;;;;;;;8.02;3.38;;;14.20;99.90;;;;;;6276427;22;20038;-87
2023/08/16 00:17:48;;;;;;;11.68;3.70;;;14.20;99.90;;;;;;6249553;22;20443;-87
2023/08/16 00:20:14;;;;;;;12.90;3.30;;;13.90;99.90;;;;;;6278659;22;20020;-87
2023/08/16 00:23:05;;;;;;;9.60;3.65;;;14.20;99.90;;;;;;6291462;22;20029;-87
2023/08/16 00:25:49;;;;;;;8.70;3.50;;;14.20;99.90;;;;;;6279707;22;20022;-87
2023/08/16 00:28:14;;;;;;;10.48;3.40;;;14.10;99.90;;;;;;6307727;22;20435;-87
2023/08/16 00:30:40;;;;;;;8.18;3.40;;;14.10;99.90;;;;;;6280937;22;20047;-87
2023/08/16 00:33:19;;;;;;;9.13;3.38;;;14.00;99.90;;;;;;6307303;22;20145;-87
2023/08/16 00:35:54;;;;;;;9.05;3.40;;;14.00;99.90;;;;;;6279969;22;20348;-87
2023/08/16 00:38:20;;;;;;;10.60;3.83;;;13.90;99.90;;;;;;6280783;22;20015;-87
2023/08/16 00:40:55;;;;;;;10.13;3.35;;;13.90;99.90;;;;;;6279541;22;20037;-87
2023/08/16 00:43:20;;;;;;;10.70;3.47;;;13.90;99.90;;;;;;6308756;22;20114;-87
2023/08/16 00:45:48;;;;;;;11.35;3.55;;;13.90;99.90;;;;;;6307152;22;20047;-88
2023/08/16 00:48:25;;;;;;;12.38;4.00;;;14.40;99.90;;;;;;6305308;22;20455;-85
2023/08/16 00:50:50;;;;;;;9.70;3.63;;;13.80;99.90;;;;;;6307203;22;20019;-88
2023/08/16 00:53:27;;;;;;;8.95;3.60;;;13.80;99.90;;;;;;6279773;22;20034;-87
2023/08/16 00:55:59;;;;;;;9.43;3.40;;;13.70;99.90;;;;;;6281242;22;20332;-87
2023/08/16 00:58:26;;;;;;;8.98;3.50;;;13.70;99.90;;;;;;6308692;22;20081;-87
2023/08/16 01:01:07;;;;;;;10.23;3.95;;;13.70;99.90;;;;;;6279700;22;20019;-87
2023/08/16 01:03:32;;;;;;;9.27;3.20;;;13.70;99.90;;;;;;6306474;22;20011;-87
2023/08/16 01:06:13;;;;;;;9.35;3.45;;;13.70;99.90;;;;;;6307950;22;20015;-87
2023/08/16 01:08:40;;;;;;;11.68;3.80;;;13.60;99.90;;;;;;6307039;22;20047;-87
2023/08/16 01:11:33;;;;;;;10.93;3.70;;;13.60;99.90;;;;;;6281832;22;20473;-87
2023/08/16 01:14:13;;;;;;;8.60;3.50;;;13.60;99.90;;;;;;6279919;22;20086;-87
2023/08/16 01:16:40;;;;;;;9.60;3.60;;;13.60;99.90;;;;;;6280310;22;20090;-88
2023/08/16 01:19:28;;;;;;;10.93;3.63;;;14.60;99.90;;;;;;6280511;22;20386;-87
2023/08/16 01:22:26;;;;;;;11.32;3.90;;;13.60;99.90;;;;;;6279380;22;20054;-87
2023/08/16 01:25:41;;;;;;;8.77;3.60;;;13.50;99.90;;;;;;6280992;22;20007;-87
2023/08/16 01:28:07;;;;;;;10.20;4.03;;;13.50;99.90;;;;;;6280152;22;20049;-87
2023/08/16 01:30:45;;;;;;;10.85;3.47;;;13.40;99.90;;;;;;6308503;22;20011;-87
2023/08/16 01:33:12;;;;;;;10.20;3.50;;;14.20;99.90;;;;;;6279879;22;20045;-87
2023/08/16 01:35:48;;;;;;;10.45;3.70;;;13.40;99.90;;;;;;6306905;22;20085;-87
2023/08/16 01:38:14;;;;;;;10.48;3.97;;;13.60;99.90;;;;;;6280855;22;20094;-87
2023/08/16 01:41:05;;;;;;;8.82;3.35;;;14.30;99.90;;;;;;6307793;22;20047;-87
2023/08/16 01:43:31;;;;;;;11.68;3.60;;;13.30;99.90;;;;;;6279973;22;20015;-87
2023/08/16 01:46:04;;;;;;;9.55;3.45;;;13.30;99.90;;;;;;6280402;22;20011;-87
2023/08/16 01:48:43;;;;;;;10.20;3.58;;;13.30;99.90;;;;;;6280959;22;20023;-87
2023/08/16 01:51:10;;;;;;;10.40;4.03;;;13.30;99.90;;;;;;6279386;22;20090;-87
2023/08/16 01:53:46;;;;;;;;;;;;;;;;;;;;;
2023/08/16 01:56:18;;;;;;;10.20;3.92;;;13.30;99.90;;;;;;6306012;22;20908;-87
2023/08/16 01:58:59;;;;;;;9.30;3.90;;;13.20;99.90;;;;;;6280434;22;20046;-87
2023/08/16 02:01:25;;;;;;;10.23;3.88;;;14.30;99.90;;;;;;6280809;22;20015;-87
2023/08/16 02:03:50;;;;;;;10.63;3.53;;;13.80;99.90;;;;;;6307090;22;20015;-87
2023/08/16 02:06:34;;;;;;;10.23;3.88;;;13.20;99.90;;;;;;6280484;22;20698;-87
2023/08/16 02:08:59;;;;;;;10.45;4.28;;;13.10;99.90;;;;;;6308954;22;20019;-87
2023/08/16 02:11:25;;;;;;;10.25;4.47;;;13.30;99.90;;;;;;6283714;22;20014;-87
2023/08/16 02:13:51;;;;;;;12.55;4.45;;;13.10;99.90;;;;;;6307495;22;20019;-87
2023/08/16 02:16:17;;;;;;;9.50;4.00;;;13.10;99.90;;;;;;6279302;22;20068;-87
2023/08/16 02:18:42;;;;;;;9.65;4.10;;;12.60;99.90;;;;;;6306599;22;20385;-87
2023/08/16 02:21:26;;;;;;;10.18;4.47;;;13.50;99.90;;;;;;6279583;22;20023;-87
2023/08/16 02:23:52;;;;;;;9.88;4.60;;;13.80;99.90;;;;;;6307487;22;20011;-87
2023/08/16 02:26:18;;;;;;;10.25;5.35;;;13.10;99.90;;;;;;6331022;22;20043;-86
2023/08/16 02:28:52;;;;;;;12.95;5.50;;;14.10;99.90;;;;;;6324055;22;20042;-87
2023/08/16 02:31:18;;;;;;;12.77;5.10;;;13.00;99.90;;;;;;6279460;22;20524;-87
2023/08/16 02:33:44;;;;;;;12.15;5.35;;;14.00;99.90;;;;;;6304694;22;20098;-87
2023/08/16 02:36:25;;;;;;;12.82;5.47;;;13.90;99.90;;;;;;6279943;22;20328;-87
2023/08/16 02:38:51;;;;;;;12.82;6.30;;;13.00;99.90;;;;;;6304394;22;20532;-87
2023/08/16 02:41:16;;;;;;;15.65;6.10;;;12.90;99.90;;;;;;6305757;22;20015;-88
2023/08/16 02:43:51;;;;;;;13.55;5.80;;;13.60;99.90;;;;;;6307448;22;20385;-87
2023/08/16 02:46:16;;;;;;;14.02;6.80;;;13.20;99.90;;;;;;6278811;22;20484;-87
2023/08/16 02:48:45;;;;;;;14.98;6.18;;;13.00;99.90;;;;;;6279304;22;20047;-87
2023/08/16 02:51:20;;;;;;;11.40;5.45;;;13.00;99.90;;;;;;6307599;22;20015;-87
2023/08/16 02:53:46;;;;;;;13.15;6.15;;;13.00;99.90;;;;;;6306563;22;20012;-87
2023/08/16 02:56:12;;;;;;;15.20;6.07;;;12.90;99.90;;;;;;6307803;22;20019;-87
2023/08/16 02:58:56;;;;;;;11.85;5.47;;;13.40;99.90;;;;;;6307326;22;20018;-87
2023/08/16 03:01:22;;;;;;;12.90;5.60;;;12.90;99.90;;;;;;6306885;22;20400;-87
2023/08/16 03:03:47;;;;;;;12.77;5.43;;;12.90;99.90;;;;;;6279064;22;20454;-87
2023/08/16 03:06:19;;;;;;;11.55;5.20;;;12.90;99.90;;;;;;6279682;22;20027;-87
2023/08/16 03:08:45;;;;;;;13.13;5.68;;;12.80;99.90;;;;;;6278734;22;20026;-87
2023/08/16 03:11:11;;;;;;;12.07;5.30;;;12.80;99.90;;;;;;6287022;22;20019;-88
2023/08/16 03:13:37;;;;;;;12.13;5.53;;;13.20;99.90;;;;;;6306324;22;20015;-87
2023/08/16 03:16:03;;;;;;;12.52;5.28;;;12.90;99.90;;;;;;6280006;22;20258;-87
2023/08/16 03:18:35;;;;;;;12.77;5.40;;;12.90;99.90;;;;;;6279876;22;20034;-87
2023/08/16 03:21:01;;;;;;;13.52;6.22;;;12.80;99.90;;;;;;6306622;22;20387;-88
2023/08/16 03:23:26;;;;;;;12.15;5.38;;;13.60;99.90;;;;;;6307800;22;20508;-87
2023/08/16 03:26:01;;;;;;;12.93;6.00;;;13.80;99.90;;;;;;6279273;22;20015;-88
2023/08/16 03:28:27;;;;;;;12.68;5.57;;;12.70;99.90;;;;;;6279421;22;20025;-88
2023/08/16 03:31:08;;;;;;;11.82;5.38;;;13.50;99.90;;;;;;6279861;22;20016;-87
2023/08/16 03:33:34;;;;;;;14.32;6.53;;;12.70;99.90;;;;;;6279510;22;20023;-88
2023/08/16 03:36:09;;;;;;;10.35;4.78;;;12.70;99.90;;;;;;6306328;22;20030;-87
2023/08/16 03:38:34;;;;;;;13.40;5.93;;;12.70;99.90;;;;;;6307010;22;20015;-87
2023/08/16 03:41:00;;;;;;;10.52;5.35;;;12.90;99.90;;;;;;6279618;22;20011;-87
2023/08/16 03:43:28;;;;;;;14.65;6.35;;;12.60;99.90;;;;;;6278784;22;20378;-88
2023/08/16 03:46:00;;;;;;;11.70;5.93;;;12.60;99.90;;;;;;6279418;22;20019;-88
2023/08/16 03:48:26;;;;;;;13.75;6.13;;;12.60;99.90;;;;;;6286208;22;20015;-87
2023/08/16 03:51:01;;;;;;;14.68;6.22;;;12.60;99.90;;;;;;6278228;22;20011;-88
2023/08/16 03:53:26;;;;;;;13.20;6.10;;;12.60;99.90;;;;;;6307329;22;20094;-88
2023/08/16 03:56:01;;;;;;;12.68;6.40;;;12.60;99.90;;;;;;6306845;22;20035;-87
2023/08/16 03:58:33;;;;;;;13.15;6.40;;;12.50;99.90;;;;;;6280415;22;20026;-87
2023/08/16 04:00:59;;;;;;;11.75;5.90;;;12.50;99.90;;;;;;6311924;22;20037;-88
2023/08/16 04:03:24;;;;;;;14.60;6.80;;;12.50;99.90;;;;;;6283931;22;20047;-87
2023/08/16 04:06:11;;;;;;;12.50;6.13;;;12.60;99.90;;;;;;6280587;22;20097;-87
2023/08/16 04:08:37;;;;;;;13.95;6.10;;;12.50;99.90;;;;;;6280934;22;20016;-87
2023/08/16 04:11:17;;;;;;;12.48;6.10;;;12.50;99.90;;;;;;6308503;22;20019;-87
2023/08/16 04:13:43;;;;;;;12.98;6.43;;;12.50;99.90;;;;;;6308688;22;20088;-87
2023/08/16 04:16:09;;;;;;;14.50;6.60;;;12.60;99.90;;;;;;6281259;22;20443;-87
2023/08/16 04:18:35;;;;;;;11.93;5.88;;;12.50;99.90;;;;;;6280445;22;20453;-87
2023/08/16 04:21:10;;;;;;;13.63;6.15;;;12.50;99.90;;;;;;6281319;22;20023;-88
2023/08/16 04:23:35;;;;;;;14.85;6.57;;;12.80;99.90;;;;;;6283938;22;20095;-87
2023/08/16 04:26:13;;;;;;;13.77;6.93;;;12.90;99.90;;;;;;6312043;22;20045;-87
2023/08/16 04:28:39;;;;;;;15.50;7.05;;;12.50;99.90;;;;;;6281203;22;20090;-88
2023/08/16 04:31:22;;;;;;;16.13;7.05;;;12.60;99.90;;;;;;6280989;22;20765;-87
2023/08/16 04:33:49;;;;;;;14.77;7.20;;;13.10;99.90;;;;;;6281060;22;20016;-87
2023/08/16 04:36:15;;;;;;;12.90;6.50;;;12.60;99.90;;;;;;6281375;22;20019;-87
2023/08/16 04:39:08;;;;;;;12.25;6.80;;;12.60;99.90;;;;;;6306967;22;20051;-87
2023/08/16 04:41:34;;;;;;;12.07;6.40;;;12.70;99.90;;;;;;6281413;22;20324;-87
2023/08/16 04:43:59;;;;;;;14.07;7.57;;;12.70;99.90;;;;;;6281486;22;20011;-87
2023/08/16 04:46:30;;;;;;;13.95;6.45;;;12.80;99.90;;;;;;6280226;22;20030;-87
2023/08/16 04:48:56;;;;;;;15.68;7.07;;;14.10;99.90;;;;;;6280366;22;20019;-87
2023/08/16 04:51:22;;;;;;;14.75;7.32;;;12.90;99.90;;;;;;6308602;22;20015;-87
2023/08/16 04:54:03;;;;;;;14.43;7.40;;;14.20;99.90;;;;;;6280255;22;20015;-87
2023/08/16 04:56:29;;;;;;;15.23;7.75;;;13.10;99.90;;;;;;6281997;22;20019;-87
2023/08/16 04:59:10;;;;;;;18.27;9.00;;;13.40;99.90;;;;;;6280899;22;20042;-87
2023/08/16 05:01:36;;;;;;;17.65;9.00;;;13.30;99.90;;;;;;6288287;22;20079;-87
2023/08/16 05:04:03;;;;;;;17.30;8.57;;;13.40;99.90;;;;;;6281715;22;20015;-87
2023/08/16 05:06:39;;;;;;;18.60;9.18;;;13.40;99.90;;;;;;6282199;22;20020;-87
2023/08/16 05:09:05;;;;;;;18.73;9.98;;;13.50;99.90;;;;;;6280913;22;20012;-87
2023/08/16 05:11:31;;;;;;;19.45;9.60;;;13.60;99.90;;;;;;6308715;22;20012;-87
2023/08/16 05:14:12;;;;;;;19.08;9.15;;;14.30;99.90;;;;;;6307194;22;20007;-87
2023/08/16 05:16:38;;;;;;;20.67;9.95;;;14.80;99.90;;;;;;6306782;22;20331;-88
2023/08/16 05:19:03;;;;;;;17.17;9.13;;;13.80;99.90;;;;;;6308636;22;20015;-87
2023/08/16 05:21:47;;;;;;;19.05;9.20;;;14.30;99.90;;;;;;6279985;22;20015;-87
2023/08/16 05:24:18;;;;;;;17.80;9.50;;;14.00;99.90;;;;;;6280723;22;20071;-87
2023/08/16 05:26:44;;;;;;;18.73;10.10;;;14.10;99.90;;;;;;6280625;22;20019;-88
2023/08/16 05:31:49;;;;;;;18.10;9.55;;;14.30;99.90;;;;;;6334929;22;20011;-86
2023/08/16 05:34:16;;;;;;;19.90;9.18;;;15.20;99.90;;;;;;6281755;22;20019;-87
2023/08/16 05:37:09;;;;;;;19.48;10.23;;;14.50;99.90;;;;;;6307009;22;20353;-87
2023/08/16 05:39:34;;;;;;;16.58;8.98;;;14.50;99.90;;;;;;6278557;22;20026;-88
2023/08/16 05:42:12;;;;;;;17.95;8.98;;;14.50;99.90;;;;;;6305742;22;20019;-87
2023/08/16 05:44:38;;;;;;;17.00;9.40;;;14.60;99.90;;;;;;6278768;22;20011;-87
2023/08/16 05:47:16;;;;;;;18.35;9.70;;;15.30;99.90;;;;;;6279458;22;20039;-87
2023/08/16 05:49:42;;;;;;;19.13;9.10;;;14.70;99.90;;;;;;6278124;22;20370;-87
2023/08/16 06:03:39;;;;;;;18.63;9.57;;;14.70;99.90;;;;;;6275941;22;20026;-90
2023/08/16 06:06:06;;;;;;;17.92;9.23;;;15.10;99.90;;;;;;6263889;22;20011;-89
2023/08/16 06:09:15;;;;;;;14.98;9.30;;;14.80;99.90;;;;;;6260521;22;20015;-89
2023/08/16 06:11:41;;;;;;;16.95;9.68;;;14.80;99.90;;;;;;6280027;22;20042;-89
2023/08/16 06:14:07;;;;;;;18.75;9.60;;;15.00;99.90;;;;;;6281936;22;20439;-90
2023/08/16 06:16:58;;;;;;;16.77;9.50;;;14.90;99.90;;;;;;6279766;22;20498;-91
2023/08/16 06:19:32;;;;;;;15.63;8.77;;;15.10;99.90;;;;;;6279797;22;20193;-90
2023/08/16 06:28:47;;;;;;;15.40;7.85;;;15.60;99.90;;;;;;6304771;22;20414;-88
2023/08/16 06:31:14;;;;;;;14.35;7.47;;;15.80;99.90;;;;;;6276753;22;20030;-88
2023/08/16 06:36:55;;;;;;;;;;;16.10;99.90;;;;;;6248805;22;20175;-86
2023/08/16 06:39:39;;;;;;;17.35;7.85;;;16.40;99.90;;;;;;6275169;22;19915;-86
2023/08/16 06:42:05;;;;;;;13.55;6.45;;;16.40;99.90;;;;;;6235969;22;20050;-87
2023/08/16 06:44:54;;;;;;;;;;;;;;;;;;;;;
2023/08/16 07:41:50;;;;;;;14.77;8.88;;;17.70;99.90;;;;;;6301899;22;20059;-87
2023/08/16 09:33:36;;;;;;;9.35;3.20;;;21.10;99.90;;;;;;6301760;22;20532;-89
2023/08/16 09:47:34;;;;;;;8.63;3.53;;;21.50;99.90;;;;;;6304559;22;20015;-88
2023/08/16 14:58:08;;;;;;;5.15;1.80;;;27.30;98.70;;;;;;6301696;22;20516;-83
2023/08/16 15:05:25;;;;;;;;;;;;;;;;;;;;;
2023/08/16 15:12:38;;;;;;;;;;;;;;;;;;;;;
2023/08/16 15:19:07;;;;;;;4.75;1.80;;;25.30;99.90;;;;;;6179875;23;20144;-85
2023/08/16 15:22:24;;;;;;;5.75;1.90;;;25.20;99.90;;;;;;6156672;23;20024;-84
2023/08/16 15:24:50;;;;;;;7.18;2.35;;;24.90;99.90;;;;;;6149851;23;20017;-84
2023/08/16 15:27:16;;;;;;;6.60;1.90;;;24.90;99.90;;;;;;6181883;23;20047;-84
2023/08/16 16:11:28;;;;;;;6.32;2.05;;;24.60;99.90;;;;;;6230353;22;20090;-85
2023/08/16 17:29:55;;;;;;;7.80;2.10;;;22.60;99.90;;;;;;6309078;22;20026;-87
2023/08/16 17:32:28;;;;;;;10.55;2.40;;;22.40;99.90;;;;;;6280778;22;20019;-87
2023/08/16 17:35:27;;;;;;;;;;;;;;;;;;;;;
2023/08/16 17:42:39;;;;;;;7.97;2.65;;;21.90;99.90;;;;;;6307245;22;20049;-84
2023/08/16 17:47:45;;;;;;;7.65;2.83;;;21.60;99.90;;;;;;6302777;22;20023;-84
2023/08/16 17:50:26;;;;;;;10.05;2.80;;;21.40;99.90;;;;;;6308066;22;20046;-84
2023/08/16 17:53:15;;;;;;;9.02;2.80;;;21.30;99.90;;;;;;6277245;22;20023;-84
2023/08/16 17:56:09;;;;;;;10.20;2.47;;;21.20;99.90;;;;;;6306738;22;20022;-85
2023/08/16 17:59:22;;;;;;;9.30;2.60;;;21.10;99.90;;;;;;6279779;22;20015;-85
2023/08/16 18:02:25;;;;;;;7.60;2.38;;;20.80;99.90;;;;;;6186187;23;20021;-85
2023/08/16 18:05:02;;;;;;;8.87;2.40;;;20.90;99.90;;;;;;6143994;23;20027;-85
2023/08/16 18:07:38;;;;;;;7.85;2.25;;;20.80;99.90;;;;;;6185496;23;20283;-84
2023/08/16 18:10:09;;;;;;;9.07;2.60;;;20.70;99.90;;;;;;6270250;22;20011;-84
2023/08/16 18:12:41;;;;;;;7.00;2.25;;;20.70;99.90;;;;;;6307119;22;20007;-85
2023/08/16 18:22:05;;;;;;;7.95;2.70;;;20.40;99.90;;;;;;6299712;22;20463;-84
2023/08/16 18:24:41;;;;;;;9.27;2.53;;;20.30;99.90;;;;;;6279661;22;20020;-84
2023/08/16 18:27:34;;;;;;;8.40;2.55;;;20.30;99.90;;;;;;6150130;23;20092;-84
2023/08/16 18:30:02;;;;;;;6.88;2.40;;;20.10;99.90;;;;;;6151303;23;20017;-84
2023/08/16 18:32:35;;;;;;;9.23;2.53;;;20.10;99.90;;;;;;6214742;22;20051;-86
2023/08/16 18:35:28;;;;;;;8.85;2.40;;;20.00;99.90;;;;;;6278950;22;20022;-85
2023/08/16 18:38:06;;;;;;;8.98;2.50;;;19.90;99.90;;;;;;6278817;22;20025;-84
2023/08/16 18:40:42;;;;;;;;;;;;;;;;;;;;;
2023/08/16 18:43:30;;;;;;;8.07;2.42;;;19.80;99.90;;;;;;6188822;22;20353;-85
2023/08/16 18:46:01;;;;;;;9.50;2.50;;;19.80;99.90;;;;;;6305791;22;20054;-85
2023/08/16 18:48:36;;;;;;;8.45;2.67;;;19.70;99.90;;;;;;6279223;22;20015;-84
2023/08/16 18:51:26;;;;;;;8.60;2.42;;;19.70;99.90;;;;;;6304430;22;20007;-84
2023/08/16 18:54:15;;;;;;;8.30;2.65;;;19.60;99.90;;;;;;6278876;22;20076;-86
2023/08/16 18:57:12;;;;;;;7.95;2.47;;;19.50;99.90;;;;;;6304632;22;20015;-85
2023/08/16 18:59:50;;;;;;;8.20;2.67;;;19.40;99.90;;;;;;6198636;22;20026;-85
2023/08/16 19:12:32;;;;;;;8.23;2.50;;;19.20;99.90;;;;;;6306528;22;20026;-87
2023/08/16 19:15:16;;;;;;;8.30;2.53;;;19.10;99.90;;;;;;6308258;22;20019;-85
2023/08/16 19:17:42;;;;;;;8.13;2.60;;;19.00;99.90;;;;;;6278398;22;20046;-86
2023/08/16 19:20:44;;;;;;;9.40;2.50;;;18.90;99.90;;;;;;6280944;22;20019;-87
2023/08/16 19:24:00;;;;;;;9.52;2.95;;;18.90;99.90;;;;;;6238870;22;20344;-89
2023/08/16 19:34:18;;;;;;;7.72;2.30;;;18.60;99.90;;;;;;6237644;22;20027;-91
2023/08/16 20:35:48;;;;;;;9.88;3.03;;;17.80;99.90;;;;;;6267267;22;20103;-89
2023/08/16 21:35:01;;;;;;;8.00;3.13;;;16.80;99.90;;;;;;6284341;22;20030;-87
2023/08/16 21:37:30;;;;;;;12.75;3.67;;;16.80;99.90;;;;;;6283853;22;20019;-88
2023/08/16 21:43:43;;;;;;;11.18;3.30;;;16.80;99.90;;;;;;6224929;22;20389;-88
2023/08/16 21:46:23;;;;;;;10.57;3.10;;;16.80;99.90;;;;;;6277458;22;20069;-88
2023/08/16 21:49:38;;;;;;;11.18;3.75;;;16.70;99.90;;;;;;6281394;22;20019;-88
2023/08/16 21:52:46;;;;;;;;;;;;;;;;;;;;;
2023/08/16 21:55:14;;;;;;;9.90;3.42;;;16.60;99.90;;;;;;6258077;22;20444;-87
2023/08/16 22:02:01;;;;;;;;;;;;;;;;;;;;;
2023/08/16 22:04:51;;;;;;;10.20;3.78;;;16.60;99.90;;;;;;6128698;23;20017;-88
2023/08/16 22:21:52;;;;;;;9.93;3.53;;;16.40;99.90;;;;;;6303661;22;20027;-88
2023/08/16 22:27:49;;;;;;;10.25;3.53;;;15.90;99.90;;;;;;6123388;23;20018;-87
2023/08/16 22:34:06;;;;;;;;;;;;;;;;;;;;;
2023/08/16 22:45:30;;;;;;;;;;;;;;;;;;;;;
2023/08/16 22:51:20;;;;;;;10.93;3.92;;;16.10;99.90;;;;;;6310932;22;20030;-87
2023/08/16 23:04:56;;;;;;;9.73;3.50;;;16.00;99.90;;;;;;6155740;23;20052;-88
2023/08/16 23:19:30;;;;;;;9.98;3.80;;;15.90;99.90;;;;;;6133568;22;20056;-87
2023/08/16 23:43:27;;;;;;;11.13;4.57;;;15.90;99.90;;;;;;5848946;24;20045;-87
2023/08/16 23:47:08;;;;;;;;;;;;;;;;;;;;;
2023/08/16 23:57:06;;;;;;;;;;;;;;;;;;;;;
